Pond, Missouri
Current Conditions -  °F | °C
As of 12:54 PM on Monday 20 Oct 2014 (Local Time) from KSUS Reporting Station
Clear Clear  
Wind Chill: 72°   Ceiling: Unl
Heat Index: 72°   Visibility: 10mi
Dew Point: 50°   Wind: 8mph
Humidity: 46%   Direction: 300°WNW
Pressure: 29.96"   Gusts: NA
Location:  38.5699°N, 90.6264°W
Report Text: KSUS 201754Z 30007KT 10SM CLR 22/10 A2996 RMK AO2 SLP143 T02220100 10222 20122 58007
Loading
Personal Weather Stations






























Interactive Weather Map
Tropical Storm Tracking
New forecast layout! Learn more

10-Day Weather Forecast

Advertisements
Track Severe Weather on mobile